createdAt,value
2023-11-06T00:00:31.543Z,-8.11
2023-11-06T00:01:31.625Z,-8.11
2023-11-06T00:02:31.759Z,-8.75
2023-11-06T00:03:31.830Z,-7.46
2023-11-06T00:04:31.922Z,-8.43
2023-11-06T00:05:32.144Z,-7.46
2023-11-06T00:06:32.067Z,-8.75
2023-11-06T00:07:32.118Z,-9.39
2023-11-06T00:08:32.225Z,-9.07
2023-11-06T00:09:32.347Z,-8.43
2023-11-06T00:10:32.434Z,-7.78
2023-11-06T00:11:32.489Z,-8.11
2023-11-06T00:12:32.562Z,-7.78
2023-11-06T00:13:32.635Z,-9.07
2023-11-06T00:14:32.733Z,-8.43
2023-11-06T00:15:32.837Z,-7.78
2023-11-06T00:16:32.889Z,-8.75
2023-11-06T00:17:33.128Z,-8.11
2023-11-06T00:18:33.115Z,-9.07
2023-11-06T00:19:33.130Z,-7.78
2023-11-06T00:20:33.237Z,-6.49
2023-11-06T00:21:33.274Z,-8.75
2023-11-06T00:22:33.359Z,-8.11
2023-11-06T00:23:33.430Z,-7.78
2023-11-06T00:24:33.501Z,-8.11
2023-11-06T00:25:33.627Z,-9.39
2023-11-06T00:26:33.667Z,-8.75
2023-11-06T00:27:33.768Z,-9.39
2023-11-06T00:28:33.808Z,-8.43
2023-11-06T00:29:33.921Z,-9.07
2023-11-06T00:30:33.961Z,-8.43
2023-11-06T00:31:34.033Z,-8.43
2023-11-06T00:32:34.151Z,-8.11
2023-11-06T00:33:34.256Z,-8.75
2023-11-06T00:34:34.315Z,-8.43
2023-11-06T00:35:34.346Z,-8.75
2023-11-06T00:36:34.427Z,-7.14
2023-11-06T00:37:34.577Z,-8.11
2023-11-06T00:38:34.597Z,-8.43
2023-11-06T00:39:34.686Z,-7.46
2023-11-06T00:40:34.781Z,-7.46
2023-11-06T00:41:34.851Z,-8.43
2023-11-06T00:42:34.970Z,-7.78
2023-11-06T00:43:35.038Z,-7.46
2023-11-06T00:44:35.097Z,-7.46
2023-11-06T00:45:35.164Z,-8.11
2023-11-06T00:46:35.279Z,-9.72
2023-11-06T00:47:35.378Z,-7.78
2023-11-06T00:48:35.424Z,-7.14
2023-11-06T00:49:35.620Z,-7.46
2023-11-06T00:50:35.590Z,-8.11
2023-11-06T00:51:35.661Z,-7.46
2023-11-06T00:52:35.773Z,-7.78
2023-11-06T00:53:35.805Z,-8.11
2023-11-06T00:54:35.916Z,-9.07
2023-11-06T00:55:35.984Z,-8.11
2023-11-06T00:56:36.088Z,-8.43
2023-11-06T00:57:36.188Z,-8.11
2023-11-06T00:58:36.238Z,-8.75
2023-11-06T00:59:36.301Z,-6.49
2023-11-06T01:00:36.374Z,-8.11
2023-11-06T01:01:36.445Z,-7.14
2023-11-06T01:02:36.598Z,-7.78
2023-11-06T01:03:36.646Z,-8.11
2023-11-06T01:04:36.735Z,-8.11
2023-11-06T01:05:36.852Z,-9.07
2023-11-06T01:06:36.855Z,-7.46
2023-11-06T01:07:36.974Z,-8.11
2023-11-06T01:08:37.005Z,-8.43
2023-11-06T01:09:37.086Z,-7.78
2023-11-06T01:10:37.178Z,-7.78
2023-11-06T01:11:37.308Z,-8.75
2023-11-06T01:12:37.365Z,-9.39
2023-11-06T01:13:37.436Z,-8.75
2023-11-06T01:14:37.500Z,-8.43
2023-11-06T01:15:37.570Z,-8.11
2023-11-06T01:16:37.686Z,-8.75
2023-11-06T01:17:37.787Z,-7.78
2023-11-06T01:18:37.879Z,-9.07
2023-11-06T01:19:37.912Z,-7.78
2023-11-06T01:20:37.965Z,-8.75
2023-11-06T01:21:38.101Z,-8.75
2023-11-06T01:22:41.632Z,-7.78
2023-11-06T01:23:38.210Z,-7.14
2023-11-06T01:24:38.288Z,-8.11
2023-11-06T01:25:38.367Z,-9.39
2023-11-06T01:26:38.488Z,-7.78
2023-11-06T01:27:38.515Z,-8.43
2023-11-06T01:28:38.602Z,-7.46
2023-11-06T01:29:38.714Z,-7.14
2023-11-06T01:30:38.760Z,-8.43
2023-11-06T01:31:38.822Z,-7.46
2023-11-06T01:32:39.023Z,-7.46
2023-11-06T01:33:39.111Z,-8.75
2023-11-06T01:34:39.125Z,-8.75
2023-11-06T01:35:39.167Z,-8.43
2023-11-06T01:36:39.229Z,-7.78
2023-11-06T01:37:39.350Z,-8.43
2023-11-06T01:38:39.445Z,-8.11
2023-11-06T01:39:39.476Z,-7.78
2023-11-06T01:40:39.575Z,-7.78
2023-11-06T01:41:39.668Z,-7.78
2023-11-06T01:42:40.510Z,-7.78
2023-11-06T01:43:39.817Z,-7.46
2023-11-06T01:44:39.850Z,-7.78
2023-11-06T01:45:39.918Z,-7.14
2023-11-06T01:46:40.024Z,-8.43
2023-11-06T01:47:40.118Z,-7.78
2023-11-06T01:48:40.286Z,-8.43
2023-11-06T01:49:40.240Z,-8.43
2023-11-06T01:50:40.317Z,-8.75
2023-11-06T01:51:40.404Z,-7.78
2023-11-06T01:52:40.472Z,-7.46
2023-11-06T01:53:40.592Z,-8.75
2023-11-06T01:54:40.620Z,-8.43
2023-11-06T01:55:40.705Z,-9.39
2023-11-06T01:56:40.773Z,-8.11
2023-11-06T01:57:40.848Z,-7.46
2023-11-06T01:58:40.990Z,-8.75
2023-11-06T01:59:41.037Z,-7.46
2023-11-06T02:00:41.139Z,-8.43
2023-11-06T02:01:41.190Z,-7.78
2023-11-06T02:02:41.315Z,-9.39
2023-11-06T02:03:41.427Z,-8.11
2023-11-06T02:04:41.422Z,-8.75
2023-11-06T02:05:41.512Z,-9.07
2023-11-06T02:06:41.602Z,-8.43
2023-11-06T02:07:41.678Z,-7.78
2023-11-06T02:08:41.767Z,-8.11
2023-11-06T02:09:41.842Z,-7.78
2023-11-06T02:10:42.002Z,-7.78
2023-11-06T02:11:42.061Z,-7.46
2023-11-06T02:12:42.100Z,-8.11
2023-11-06T02:13:42.173Z,-8.43
2023-11-06T02:14:42.238Z,-9.72
2023-11-06T02:15:42.622Z,-8.11
2023-11-06T02:16:42.456Z,-8.75
2023-11-06T02:17:42.505Z,-8.11
2023-11-06T02:18:42.613Z,-7.46
2023-11-06T02:19:42.641Z,-6.82
2023-11-06T02:20:42.722Z,-8.75
2023-11-06T02:21:49.987Z,-7.78
2023-11-06T02:22:43.945Z,-7.46
2023-11-06T02:23:42.987Z,-7.78
2023-11-06T02:24:43.062Z,-8.43
2023-11-06T02:25:43.135Z,-7.14
2023-11-06T02:26:43.243Z,-8.43
2023-11-06T02:27:43.287Z,-8.43
2023-11-06T02:28:43.363Z,-8.75
2023-11-06T02:29:43.452Z,-8.75
2023-11-06T02:30:43.540Z,-7.14
2023-11-06T02:31:43.676Z,-9.39
2023-11-06T02:32:43.875Z,-8.43
2023-11-06T02:33:43.891Z,-8.11
2023-11-06T02:34:43.891Z,-8.43
2023-11-06T02:35:44.028Z,-8.75
2023-11-06T02:36:44.090Z,-8.11
2023-11-06T02:37:44.146Z,-8.11
2023-11-06T02:38:44.165Z,-7.46
2023-11-06T02:39:44.248Z,-8.43
2023-11-06T02:40:44.324Z,-8.75
2023-11-06T02:41:44.476Z,-8.75
2023-11-06T02:42:44.595Z,-8.75
2023-11-06T02:43:44.587Z,-8.43
2023-11-06T02:44:44.716Z,-7.46
2023-11-06T02:45:44.766Z,-7.78
2023-11-06T02:46:44.843Z,-7.78
2023-11-06T02:47:44.977Z,-8.11
2023-11-06T02:48:45.071Z,-7.46
2023-11-06T02:49:45.124Z,-8.11
2023-11-06T02:50:45.232Z,-8.43
2023-11-06T02:51:45.307Z,-8.43
2023-11-06T02:52:45.369Z,-8.75
2023-11-06T02:53:45.991Z,-8.11
2023-11-06T02:54:45.536Z,-7.46
2023-11-06T02:55:45.614Z,-7.78
2023-11-06T02:56:45.690Z,-7.78
2023-11-06T02:57:45.761Z,-8.43
2023-11-06T02:58:45.842Z,-8.11
2023-11-06T02:59:45.939Z,-7.14
2023-11-06T03:00:45.974Z,-7.78
2023-11-06T03:01:46.064Z,-7.78
2023-11-06T03:02:46.245Z,-7.46
2023-11-06T03:03:46.273Z,-8.75
2023-11-06T03:04:46.365Z,-7.46
2023-11-06T03:05:46.423Z,-7.14
2023-11-06T03:06:46.542Z,-8.11
2023-11-06T03:07:46.617Z,-9.39
2023-11-06T03:08:46.660Z,-8.43
2023-11-06T03:09:46.790Z,-8.75
2023-11-06T03:10:46.809Z,-8.43
2023-11-06T03:11:46.936Z,-9.07
2023-11-06T03:12:47.078Z,-6.82
2023-11-06T03:13:47.147Z,-8.11
2023-11-06T03:14:47.198Z,-9.07
2023-11-06T03:15:47.231Z,-9.07
2023-11-06T03:16:47.354Z,-9.39
2023-11-06T03:17:47.424Z,-9.07
2023-11-06T03:18:47.502Z,-8.75
2023-11-06T03:19:47.883Z,-7.78
2023-11-06T03:20:47.710Z,-8.11
2023-11-06T03:21:47.709Z,-8.75
2023-11-06T03:22:47.876Z,-7.78
2023-11-06T03:23:47.899Z,-8.11
2023-11-06T03:24:47.965Z,-7.46
2023-11-06T03:25:48.161Z,-8.11
2023-11-06T03:26:48.155Z,-8.43
2023-11-06T03:27:48.210Z,-9.07
2023-11-06T03:28:48.354Z,-7.14
2023-11-06T03:29:48.369Z,-7.14
2023-11-06T03:30:48.455Z,-8.43
2023-11-06T03:31:48.639Z,-8.43
2023-11-06T03:32:48.683Z,-8.11
2023-11-06T03:33:48.745Z,-8.11
2023-11-06T03:34:48.817Z,-8.43
2023-11-06T03:35:48.905Z,-8.43
2023-11-06T03:36:49.068Z,-7.46
2023-11-06T03:37:49.128Z,-8.43
2023-11-06T03:38:49.129Z,-7.78
2023-11-06T03:39:49.247Z,-9.39
2023-11-06T03:40:49.380Z,-9.39
2023-11-06T03:41:49.416Z,-7.46
2023-11-06T03:42:49.447Z,-7.46
2023-11-06T03:43:49.557Z,-8.11
2023-11-06T03:44:49.598Z,-8.43
2023-11-06T03:45:52.086Z,-9.07
2023-11-06T03:46:49.859Z,-8.11
2023-11-06T03:47:49.922Z,-8.75
2023-11-06T03:48:49.983Z,-8.75
2023-11-06T03:49:50.047Z,-7.46
2023-11-06T03:50:50.118Z,-8.11
2023-11-06T03:51:50.288Z,-8.75
2023-11-06T03:52:50.288Z,-9.07
2023-11-06T03:53:50.370Z,-8.43
2023-11-06T03:54:50.428Z,-9.72
2023-11-06T03:55:50.580Z,-8.75
2023-11-06T03:56:50.636Z,-7.46
2023-11-06T03:57:50.684Z,-9.39
2023-11-06T03:58:50.807Z,-7.78
2023-11-06T03:59:50.893Z,-9.07
2023-11-06T04:00:50.960Z,-9.07
2023-11-06T04:01:51.098Z,-8.11
2023-11-06T04:02:51.162Z,-7.46
2023-11-06T04:03:51.237Z,-8.43
2023-11-06T04:04:51.308Z,-9.07
2023-11-06T04:05:51.377Z,-8.11
2023-11-06T04:06:51.472Z,-8.11
2023-11-06T04:07:51.646Z,-9.07
2023-11-06T04:08:51.682Z,-8.43
2023-11-06T04:09:51.742Z,-9.72
2023-11-06T04:10:51.840Z,-9.39
2023-11-06T04:11:51.889Z,-9.07
2023-11-06T04:12:51.989Z,-9.07
2023-11-06T04:13:52.126Z,-8.11
2023-11-06T04:14:52.192Z,-8.43
2023-11-06T04:15:52.285Z,-9.39
2023-11-06T04:16:52.372Z,-8.11
2023-11-06T04:17:52.465Z,-8.11
2023-11-06T04:18:52.531Z,-7.78
2023-11-06T04:19:52.670Z,-9.39
2023-11-06T04:20:52.662Z,-7.78
2023-11-06T04:21:52.742Z,-8.11
2023-11-06T04:22:52.851Z,-7.46
2023-11-06T04:23:52.903Z,-8.43
2023-11-06T04:24:53.018Z,-9.07
2023-11-06T04:25:53.092Z,-9.39
2023-11-06T04:26:53.126Z,-9.07
2023-11-06T04:27:53.223Z,-9.72
2023-11-06T04:28:53.295Z,-8.43
2023-11-06T04:29:53.393Z,-8.11
2023-11-06T04:30:53.515Z,-8.75
2023-11-06T04:31:53.556Z,-9.07
2023-11-06T04:32:53.647Z,-7.78
2023-11-06T04:33:53.737Z,-8.75
2023-11-06T04:34:53.821Z,-10.04
2023-11-06T04:35:53.887Z,-8.11
2023-11-06T04:36:53.923Z,-8.75
2023-11-06T04:37:54.070Z,-8.75
2023-11-06T04:38:54.085Z,-9.39
2023-11-06T04:39:54.156Z,-8.43
2023-11-06T04:40:54.243Z,-9.07
2023-11-06T04:41:54.332Z,-9.72
2023-11-06T04:42:54.453Z,-9.07
2023-11-06T04:43:54.489Z,-9.39
2023-11-06T04:44:54.550Z,-9.07
2023-11-06T04:45:54.632Z,-9.07
2023-11-06T04:46:54.733Z,-9.39
2023-11-06T04:47:54.969Z,-9.07
2023-11-06T04:48:54.877Z,-9.07
2023-11-06T04:49:54.959Z,-8.75
2023-11-06T04:50:55.003Z,-8.75
2023-11-06T04:51:55.084Z,-9.39
2023-11-06T04:52:55.193Z,-10.04
2023-11-06T04:53:55.256Z,-8.43
2023-11-06T04:54:55.292Z,-8.11
2023-11-06T04:55:55.418Z,-9.07
2023-11-06T04:56:55.433Z,-8.75
2023-11-06T04:57:55.497Z,-9.07
2023-11-06T04:58:55.610Z,-8.11
2023-11-06T04:59:55.637Z,-8.75
2023-11-06T05:00:56.494Z,-9.07
2023-11-06T05:01:55.829Z,-9.07
2023-11-06T05:02:55.905Z,-8.43
2023-11-06T05:03:56.036Z,-9.72
2023-11-06T05:04:56.103Z,-10.04
2023-11-06T05:05:56.274Z,-8.75
2023-11-06T05:06:56.221Z,-9.07
2023-11-06T05:07:56.294Z,-9.39
2023-11-06T05:08:56.366Z,-8.11
2023-11-06T05:09:56.484Z,-9.07
2023-11-06T05:10:56.532Z,-9.72
2023-11-06T05:11:56.599Z,-8.75
2023-11-06T05:12:56.699Z,-9.72
2023-11-06T05:13:56.797Z,-8.43
2023-11-06T05:14:56.874Z,-8.75
2023-11-06T05:15:56.909Z,-8.43
2023-11-06T05:16:57.027Z,-9.07
2023-11-06T05:17:57.079Z,-9.07
2023-11-06T05:18:57.126Z,-8.43
2023-11-06T05:19:57.206Z,-8.11
2023-11-06T05:20:57.268Z,-8.43
2023-11-06T05:21:57.374Z,-9.39
2023-11-06T05:22:57.481Z,-9.07
2023-11-06T05:23:57.509Z,-9.39
2023-11-06T05:24:57.588Z,-9.39
2023-11-06T05:25:57.785Z,-9.72
2023-11-06T05:26:57.794Z,-7.46
2023-11-06T05:27:57.844Z,-8.11
2023-11-06T05:28:57.987Z,-9.39
2023-11-06T05:29:58.055Z,-9.07
2023-11-06T05:30:58.134Z,-8.43
2023-11-06T05:31:58.190Z,-9.39
2023-11-06T05:32:58.272Z,-9.39
2023-11-06T05:33:58.356Z,-7.14
2023-11-06T05:34:58.531Z,-7.14
2023-11-06T05:35:58.513Z,-9.07
2023-11-06T05:36:58.603Z,-8.75
2023-11-06T05:37:58.709Z,-8.11
2023-11-06T05:38:58.771Z,-8.11
2023-11-06T05:39:58.792Z,-8.75
2023-11-06T05:40:58.896Z,-9.07
2023-11-06T05:41:58.957Z,-9.07
2023-11-06T05:42:59.060Z,-8.75
2023-11-06T05:43:59.201Z,-8.43
2023-11-06T05:44:59.199Z,-8.75
2023-11-06T05:45:59.294Z,-7.78
2023-11-06T05:46:59.400Z,-8.75
2023-11-06T05:47:59.491Z,-9.39
2023-11-06T05:48:59.702Z,-8.43
2023-11-06T05:49:59.663Z,-8.43
2023-11-06T05:50:59.723Z,-7.78
2023-11-06T05:51:59.791Z,-9.39
2023-11-06T05:52:59.902Z,-8.75
2023-11-06T05:54:00.004Z,-9.07
2023-11-06T05:55:00.084Z,-8.43
2023-11-06T05:56:00.169Z,-8.75
2023-11-06T05:57:00.223Z,-8.43
2023-11-06T05:58:00.363Z,-8.11
2023-11-06T05:59:00.432Z,-7.78
2023-11-06T06:00:00.466Z,-8.43
2023-11-06T06:01:00.558Z,-8.11
2023-11-06T06:02:00.633Z,-7.46
2023-11-06T06:03:00.751Z,-8.43
2023-11-06T06:04:00.780Z,-8.75
2023-11-06T06:05:00.882Z,-8.11
2023-11-06T06:06:01.119Z,-7.78
2023-11-06T06:07:01.012Z,-9.07
2023-11-06T06:08:01.109Z,-9.07
2023-11-06T06:09:01.189Z,-9.07
2023-11-06T06:10:01.271Z,-9.07
2023-11-06T06:11:01.422Z,-7.46
2023-11-06T06:12:01.458Z,-9.07
2023-11-06T06:13:01.505Z,-9.07
2023-11-06T06:14:01.620Z,-9.39
2023-11-06T06:15:01.778Z,-7.46
2023-11-06T06:16:01.758Z,-7.46
2023-11-06T06:17:01.865Z,-8.43
2023-11-06T06:18:01.954Z,-8.75
2023-11-06T06:19:01.983Z,-8.75
2023-11-06T06:20:02.164Z,-7.78
2023-11-06T06:21:02.121Z,-7.78
2023-11-06T06:22:02.249Z,-8.11
2023-11-06T06:23:02.307Z,-8.11
2023-11-06T06:24:02.398Z,-8.11
2023-11-06T06:25:02.496Z,-7.46
2023-11-06T06:26:02.701Z,-8.11
2023-11-06T06:27:02.706Z,-7.78
2023-11-06T06:28:02.746Z,-8.75
2023-11-06T06:29:02.845Z,-8.75
2023-11-06T06:30:02.947Z,-7.78
2023-11-06T06:31:02.990Z,-8.75
2023-11-06T06:32:03.143Z,-9.07
2023-11-06T06:33:03.208Z,-8.43
2023-11-06T06:34:03.214Z,-9.39
2023-11-06T06:35:03.296Z,-9.07
2023-11-06T06:36:03.378Z,-8.75
2023-11-06T06:37:03.506Z,-8.75
2023-11-06T06:38:03.595Z,-7.46
2023-11-06T06:39:03.629Z,-7.78
2023-11-06T06:40:03.752Z,-9.07
2023-11-06T06:41:03.829Z,-8.11
2023-11-06T06:42:03.966Z,-8.11
2023-11-06T06:43:04.090Z,-8.43
2023-11-06T06:44:04.123Z,-8.43
2023-11-06T06:45:04.157Z,-8.11
2023-11-06T06:46:04.240Z,-7.78
2023-11-06T06:47:04.338Z,-8.43
2023-11-06T06:48:04.497Z,-8.11
2023-11-06T06:49:04.580Z,-7.46
2023-11-06T06:50:04.565Z,-9.07
2023-11-06T06:51:04.634Z,-7.78
2023-11-06T06:52:04.716Z,-9.07
2023-11-06T06:53:04.841Z,-7.78
2023-11-06T06:54:04.919Z,-8.75
2023-11-06T06:55:04.987Z,-8.75
2023-11-06T06:56:05.064Z,-8.43
2023-11-06T06:57:05.139Z,-7.14
2023-11-06T06:58:05.222Z,-6.82
2023-11-06T06:59:05.378Z,-8.11
2023-11-06T07:00:05.438Z,-7.78
2023-11-06T07:01:05.451Z,-7.46
2023-11-06T07:02:05.644Z,-7.46
2023-11-06T07:03:05.714Z,-8.11
2023-11-06T07:04:06.023Z,-8.43
2023-11-06T07:05:05.964Z,-7.46
2023-11-06T07:06:06.072Z,-8.43
2023-11-06T07:07:05.946Z,-8.11
2023-11-06T07:08:06.073Z,-8.43
2023-11-06T07:09:06.093Z,-7.78
2023-11-06T07:10:06.222Z,-8.43
2023-11-06T07:11:06.340Z,-8.43
2023-11-06T07:12:06.317Z,-8.43
2023-11-06T07:13:06.400Z,-9.39
2023-11-06T07:14:06.511Z,-8.11
2023-11-06T07:15:06.602Z,-8.11
2023-11-06T07:16:06.655Z,-8.75
2023-11-06T07:17:06.766Z,-7.46
2023-11-06T07:18:06.882Z,-7.78
2023-11-06T07:19:06.888Z,-8.43
2023-11-06T07:20:06.987Z,-7.46
2023-11-06T07:21:07.070Z,-9.07
2023-11-06T07:22:07.190Z,-7.78
2023-11-06T07:23:07.237Z,-8.43
2023-11-06T07:24:07.296Z,-6.82
2023-11-06T07:25:07.418Z,-7.78
2023-11-06T07:26:07.520Z,-8.75
2023-11-06T07:27:07.639Z,-7.46
2023-11-06T07:28:07.647Z,-7.14
2023-11-06T07:29:07.830Z,-8.11
2023-11-06T07:30:07.860Z,-7.14
2023-11-06T07:31:07.886Z,-7.46
2023-11-06T07:32:08.027Z,-7.78
2023-11-06T07:33:08.143Z,-8.43
2023-11-06T07:34:08.152Z,-9.07
2023-11-06T07:35:08.299Z,-7.46
2023-11-06T07:36:08.314Z,-9.39
2023-11-06T07:37:08.385Z,-8.75
2023-11-06T07:38:08.456Z,-9.07
2023-11-06T07:39:08.540Z,-7.46
2023-11-06T07:40:08.703Z,-7.14
2023-11-06T07:41:08.734Z,-6.82
2023-11-06T07:42:08.804Z,-7.14
2023-11-06T07:43:08.872Z,-7.14
2023-11-06T07:44:08.953Z,-8.11
2023-11-06T07:45:09.124Z,-7.46
2023-11-06T07:46:09.093Z,-8.11
2023-11-06T07:47:09.181Z,-8.11
2023-11-06T07:48:09.299Z,-8.11
2023-11-06T07:49:09.372Z,-8.43
2023-11-06T07:50:09.620Z,-7.78
2023-11-06T07:51:09.499Z,-9.07
2023-11-06T07:52:09.621Z,-7.14
2023-11-06T07:53:09.692Z,-7.78
2023-11-06T07:54:09.788Z,-8.11
2023-11-06T07:55:09.879Z,-7.14
2023-11-06T07:56:09.962Z,-8.11
2023-11-06T07:57:10.002Z,-7.78
2023-11-06T07:58:10.099Z,-7.78
2023-11-06T07:59:10.193Z,-8.43
2023-11-06T08:00:10.728Z,-6.82
2023-11-06T08:01:10.534Z,-7.46
2023-11-06T08:02:10.577Z,-8.11
2023-11-06T08:03:10.577Z,-7.78
2023-11-06T08:04:10.667Z,-7.78
2023-11-06T08:05:10.797Z,-8.11
2023-11-06T08:06:10.870Z,-9.39
2023-11-06T08:07:10.964Z,-8.11
2023-11-06T08:08:11.078Z,-6.82
2023-11-06T08:09:11.120Z,-8.11
2023-11-06T08:10:11.184Z,-7.78
2023-11-06T08:11:11.386Z,-7.78
2023-11-06T08:12:11.322Z,-9.07
2023-11-06T08:13:11.418Z,-7.46
2023-11-06T08:14:11.584Z,-9.39
2023-11-06T08:15:11.602Z,-7.46
2023-11-06T08:16:11.641Z,-7.46
2023-11-06T08:17:11.805Z,-7.46
2023-11-06T08:18:11.937Z,-8.43
2023-11-06T08:19:11.923Z,-8.75
2023-11-06T08:20:12.002Z,-8.11
2023-11-06T08:21:12.076Z,-7.46
2023-11-06T08:22:12.153Z,-8.43
2023-11-06T08:23:12.297Z,-7.78
2023-11-06T08:24:12.377Z,-7.46
2023-11-06T08:25:12.418Z,-7.46
2023-11-06T08:26:12.549Z,-7.46
2023-11-06T08:27:12.617Z,-6.82
2023-11-06T08:28:12.730Z,-8.11
2023-11-06T08:29:12.831Z,-8.75
2023-11-06T08:30:12.897Z,-7.14
2023-11-06T08:31:12.990Z,-7.78
2023-11-06T08:32:13.241Z,-8.11
2023-11-06T08:33:13.176Z,-6.82
2023-11-06T08:34:13.309Z,-6.82
2023-11-06T08:35:13.400Z,-8.43
2023-11-06T08:36:13.667Z,-8.43
2023-11-06T08:37:13.471Z,-8.43
2023-11-06T08:38:13.639Z,-8.11
2023-11-06T08:39:13.753Z,-8.43
2023-11-06T08:40:13.719Z,-8.11
2023-11-06T08:41:13.804Z,-8.43
2023-11-06T08:42:13.848Z,-8.11
2023-11-06T08:43:16.873Z,-7.14
2023-11-06T08:44:14.126Z,-7.46
2023-11-06T08:45:14.078Z,-7.14
2023-11-06T08:46:14.150Z,-7.46
2023-11-06T08:47:14.280Z,-7.46
2023-11-06T08:48:14.372Z,-7.78
2023-11-06T08:49:20.478Z,-6.82
2023-11-06T08:50:15.485Z,-6.49
2023-11-06T08:51:14.538Z,-7.78
2023-11-06T08:52:14.636Z,-6.17
2023-11-06T08:53:14.769Z,-6.49
2023-11-06T08:54:14.876Z,-6.49
2023-11-06T08:55:17.005Z,-8.43
2023-11-06T08:56:14.962Z,-7.46
2023-11-06T08:57:15.065Z,-7.46
2023-11-06T08:58:15.168Z,-7.14
2023-11-06T08:59:15.313Z,-7.78
2023-11-06T09:00:15.278Z,-7.14
2023-11-06T09:01:17.348Z,-6.82
2023-11-06T09:02:15.546Z,-7.14
2023-11-06T09:03:15.612Z,-8.11
2023-11-06T09:04:15.688Z,-5.85
2023-11-06T09:05:15.710Z,-6.49
2023-11-06T09:06:15.789Z,-7.46
2023-11-06T09:07:15.914Z,-6.49
2023-11-06T09:08:15.986Z,-7.14
2023-11-06T09:09:16.044Z,-7.14
2023-11-06T09:10:16.148Z,-7.14
2023-11-06T09:11:16.302Z,-6.17
2023-11-06T09:12:16.338Z,-7.14
2023-11-06T09:13:16.394Z,-6.17
2023-11-06T09:14:16.517Z,-7.46
2023-11-06T09:15:16.599Z,-7.14
2023-11-06T09:16:16.706Z,-6.49
2023-11-06T09:17:16.765Z,-8.11
2023-11-06T09:18:16.940Z,-6.17
2023-11-06T09:19:16.903Z,-7.14
2023-11-06T09:20:17.101Z,-7.78
2023-11-06T09:21:17.128Z,-7.78
2023-11-06T09:22:17.212Z,-6.49
2023-11-06T09:23:17.303Z,-7.14
2023-11-06T09:24:17.388Z,-5.85
2023-11-06T09:25:17.416Z,-7.14
2023-11-06T09:26:17.553Z,-7.14
2023-11-06T09:27:17.637Z,-6.82
2023-11-06T09:28:17.741Z,-7.14
2023-11-06T09:29:17.780Z,-7.78
2023-11-06T09:30:17.840Z,-7.78
2023-11-06T09:31:17.921Z,-5.53
2023-11-06T09:32:18.186Z,-6.49
2023-11-06T09:33:18.156Z,-6.49
2023-11-06T09:34:18.280Z,-6.82
2023-11-06T09:35:18.269Z,-5.21
2023-11-06T09:36:18.319Z,-6.49
2023-11-06T09:37:18.426Z,-7.14
2023-11-06T09:38:18.621Z,-8.43
2023-11-06T09:39:18.649Z,-8.11
2023-11-06T09:40:18.754Z,-7.46
2023-11-06T09:41:18.820Z,-7.14
2023-11-06T09:42:18.872Z,-7.46
2023-11-06T09:43:19.641Z,-7.14
2023-11-06T09:44:19.060Z,-8.11
2023-11-06T09:45:19.168Z,-5.85
2023-11-06T09:46:19.294Z,-8.11
2023-11-06T09:47:19.327Z,-6.17
2023-11-06T09:48:19.553Z,-7.46
2023-11-06T09:49:19.515Z,-8.11
2023-11-06T09:50:19.613Z,-7.14
2023-11-06T09:51:21.036Z,-6.82
2023-11-06T09:52:19.712Z,-6.82
2023-11-06T09:53:19.817Z,-5.85
2023-11-06T09:54:19.883Z,-6.82
2023-11-06T09:55:19.999Z,-7.14
2023-11-06T09:56:20.126Z,-6.17
2023-11-06T09:57:20.146Z,-6.17
2023-11-06T09:58:20.253Z,-6.49
2023-11-06T09:59:20.327Z,-7.46
2023-11-06T10:00:20.395Z,-6.49
2023-11-06T10:01:20.517Z,-6.82
2023-11-06T10:02:20.662Z,-7.14
2023-11-06T10:03:20.716Z,-7.78
2023-11-06T10:04:20.760Z,-8.43
2023-11-06T10:05:20.916Z,-6.49
2023-11-06T10:06:20.937Z,-6.82
2023-11-06T10:07:20.972Z,-6.49
2023-11-06T10:08:21.102Z,-6.82
2023-11-06T10:09:21.146Z,-6.17
2023-11-06T10:10:21.242Z,-6.82
2023-11-06T10:11:21.373Z,-6.82
2023-11-06T10:12:21.420Z,-8.11
2023-11-06T10:13:21.541Z,-6.49
2023-11-06T10:14:21.634Z,-6.82
2023-11-06T10:15:21.682Z,-6.17
2023-11-06T10:16:21.768Z,-5.21
2023-11-06T10:17:21.874Z,-6.17
2023-11-06T10:18:22.279Z,-6.82
2023-11-06T10:19:22.017Z,-7.14
2023-11-06T10:20:22.211Z,-6.17
2023-11-06T10:21:22.182Z,-5.53
2023-11-06T10:22:22.274Z,-7.14
2023-11-06T10:23:22.468Z,-6.49
2023-11-06T10:24:22.463Z,-7.46
2023-11-06T10:25:22.577Z,-6.17
2023-11-06T10:26:23.498Z,-6.49
2023-11-06T10:27:22.733Z,-7.14
2023-11-06T10:28:22.863Z,-7.46
2023-11-06T10:29:22.983Z,-6.82
2023-11-06T10:30:23.058Z,-6.49
2023-11-06T10:31:23.130Z,-6.49
2023-11-06T10:32:23.209Z,-6.82
2023-11-06T10:33:24.271Z,-5.85
2023-11-06T10:34:23.507Z,-6.49
2023-11-06T10:35:23.503Z,-7.78
2023-11-06T10:36:23.475Z,-5.85
2023-11-06T10:37:23.564Z,-5.21
2023-11-06T10:38:23.697Z,-5.53
2023-11-06T10:39:23.765Z,-5.21
2023-11-06T10:40:23.863Z,-6.82
2023-11-06T10:41:24.112Z,-7.14
2023-11-06T10:42:23.993Z,-6.17
2023-11-06T10:43:24.943Z,-5.85
2023-11-06T10:44:24.222Z,-5.21
2023-11-06T10:45:25.080Z,-6.17
2023-11-06T10:46:24.371Z,-6.17
2023-11-06T10:47:25.279Z,-4.24
2023-11-06T10:48:24.617Z,-6.49
2023-11-06T10:49:24.598Z,-6.17
2023-11-06T10:50:26.547Z,-6.82
2023-11-06T10:51:24.720Z,-5.53
2023-11-06T10:52:24.824Z,-6.49
2023-11-06T10:53:24.941Z,-5.85
2023-11-06T10:54:25.069Z,-7.14
2023-11-06T10:55:31.669Z,-5.53
2023-11-06T10:56:26.241Z,-6.82
2023-11-06T10:57:25.193Z,-6.49
2023-11-06T10:58:25.278Z,-6.49
2023-11-06T10:59:25.445Z,-6.17
2023-11-06T11:00:25.498Z,-7.14
2023-11-06T11:01:25.573Z,-7.46
2023-11-06T11:02:25.674Z,-7.14
2023-11-06T11:03:25.761Z,-6.17
2023-11-06T11:04:25.854Z,-6.82
2023-11-06T11:05:26.366Z,-4.56
2023-11-06T11:06:25.950Z,-6.17
2023-11-06T11:07:26.023Z,-6.49
2023-11-06T11:08:26.094Z,-6.82
2023-11-06T11:09:26.121Z,-5.85
2023-11-06T11:10:26.198Z,-5.21
2023-11-06T11:11:26.366Z,-5.53
2023-11-06T11:12:26.446Z,-6.17
2023-11-06T11:13:26.563Z,-4.24
2023-11-06T11:14:26.612Z,-4.88
2023-11-06T11:15:26.661Z,-3.92
2023-11-06T11:16:28.521Z,-4.56
2023-11-06T11:17:26.904Z,-5.53
2023-11-06T11:18:27.036Z,-5.53
2023-11-06T11:19:27.025Z,-5.85
2023-11-06T11:20:27.122Z,-5.85
2023-11-06T11:21:27.176Z,-6.82
2023-11-06T11:22:29.066Z,-5.85
2023-11-06T11:23:27.400Z,-6.49
2023-11-06T11:24:27.707Z,-7.78
2023-11-06T11:25:27.655Z,-6.82
2023-11-06T11:26:27.558Z,-6.49
2023-11-06T11:27:28.524Z,-6.17
2023-11-06T11:28:29.133Z,-5.85
2023-11-06T11:29:27.843Z,-5.21
2023-11-06T11:30:27.930Z,-5.21
2023-11-06T11:31:27.924Z,-6.82
2023-11-06T11:32:28.023Z,-5.53
2023-11-06T11:33:28.158Z,-6.82
2023-11-06T11:34:28.815Z,-5.85
2023-11-06T11:35:28.392Z,-5.53
2023-11-06T11:36:28.390Z,-7.46
2023-11-06T11:37:28.480Z,-6.17
2023-11-06T11:38:28.667Z,-4.88
2023-11-06T11:39:28.641Z,-4.88
2023-11-06T11:40:28.779Z,-6.82
2023-11-06T11:41:28.858Z,-5.53
2023-11-06T11:42:28.865Z,-6.17
2023-11-06T11:43:28.931Z,-7.46
2023-11-06T11:44:29.157Z,-5.53
2023-11-06T11:45:29.112Z,-6.17
2023-11-06T11:46:29.168Z,-6.82
2023-11-06T11:47:29.320Z,-4.88
2023-11-06T11:48:29.387Z,-3.27
2023-11-06T11:49:29.414Z,-5.53
2023-11-06T11:50:29.566Z,-6.17
2023-11-06T11:51:29.928Z,-5.53
2023-11-06T11:52:29.666Z,-5.21
2023-11-06T11:53:29.750Z,-5.53
2023-11-06T11:54:29.860Z,-7.14
2023-11-06T11:55:30.151Z,-5.21
2023-11-06T11:56:29.992Z,-6.17
2023-11-06T11:57:30.058Z,-5.53
2023-11-06T11:58:30.180Z,-6.17
2023-11-06T11:59:30.344Z,-4.56
2023-11-06T12:00:30.340Z,-5.53
2023-11-06T12:01:30.437Z,-5.21
2023-11-06T12:02:31.080Z,-6.17
2023-11-06T12:03:30.755Z,-4.56
2023-11-06T12:04:30.652Z,-5.85
2023-11-06T12:05:30.827Z,-4.88
2023-11-06T12:06:30.826Z,-6.17
2023-11-06T12:07:30.880Z,-4.56
2023-11-06T12:08:31.057Z,-3.92
2023-11-06T12:09:31.048Z,-3.59
2023-11-06T12:10:31.155Z,-2.63
2023-11-06T12:11:31.355Z,-5.21
2023-11-06T12:12:31.243Z,-3.92
2023-11-06T12:13:31.387Z,-6.17
2023-11-06T12:14:31.488Z,-5.21
2023-11-06T12:15:31.524Z,-6.49
2023-11-06T12:16:31.600Z,-6.49
2023-11-06T12:17:31.948Z,-4.88
2023-11-06T12:18:31.914Z,-6.82
2023-11-06T12:19:31.995Z,-6.49
2023-11-06T12:20:31.944Z,-6.82
2023-11-06T12:21:31.999Z,-5.85
2023-11-06T12:22:32.223Z,-5.53
2023-11-06T12:23:32.291Z,-6.17
2023-11-06T12:24:32.283Z,-6.49
2023-11-06T12:25:32.396Z,-5.21
2023-11-06T12:26:32.569Z,-7.14
2023-11-06T12:27:32.570Z,-5.53
2023-11-06T12:28:32.670Z,-6.82
2023-11-06T12:29:32.805Z,-5.85
2023-11-06T12:30:32.839Z,-5.85
2023-11-06T12:31:32.889Z,-5.85
2023-11-06T12:32:33.035Z,-7.46
2023-11-06T12:33:33.248Z,-6.82
2023-11-06T12:34:33.186Z,-6.17
2023-11-06T12:35:33.223Z,-6.82
2023-11-06T12:36:34.374Z,-6.17
2023-11-06T12:37:33.416Z,-5.85
2023-11-06T12:38:33.535Z,-6.82
2023-11-06T12:39:33.553Z,-6.49
2023-11-06T12:40:33.648Z,-7.46
2023-11-06T12:41:33.797Z,-6.49
2023-11-06T12:42:33.785Z,-6.49
2023-11-06T12:43:33.996Z,-6.17
2023-11-06T12:44:34.012Z,-7.46
2023-11-06T12:45:34.077Z,-7.14
2023-11-06T12:46:34.151Z,-5.53
2023-11-06T12:47:34.217Z,-6.17
2023-11-06T12:48:35.664Z,-5.53
2023-11-06T12:49:34.452Z,-5.85
2023-11-06T12:50:34.430Z,-5.85
2023-11-06T12:51:34.547Z,-6.82
2023-11-06T12:52:34.574Z,-6.49
2023-11-06T12:53:34.691Z,-5.85